createdAt,value
2019-01-31T00:02:19.199Z,1.50
2019-01-31T00:05:19.629Z,1.50
2019-01-31T00:08:24.829Z,1.50
2019-01-31T00:11:34.653Z,1.50
2019-01-31T00:14:32.029Z,1.50
2019-01-31T00:17:10.717Z,1.50
2019-01-31T00:20:36.289Z,1.50
2019-01-31T00:23:36.522Z,1.60
2019-01-31T00:26:38.981Z,1.60
2019-01-31T00:29:21.115Z,1.60
2019-01-31T00:32:15.104Z,1.60
2019-01-31T00:35:25.792Z,1.60
2019-01-31T00:38:39.206Z,1.60
2019-01-31T00:41:40.943Z,1.70
2019-01-31T00:44:36.774Z,1.70
2019-01-31T00:47:42.090Z,1.70
2019-01-31T00:50:18.953Z,1.70
2019-01-31T00:52:58.078Z,1.70
2019-01-31T00:56:01.412Z,1.70
2019-01-31T00:59:03.306Z,1.60
2019-01-31T01:02:13.585Z,1.60
2019-01-31T01:05:08.956Z,1.60
2019-01-31T01:08:01.928Z,1.60
2019-01-31T01:11:10.609Z,1.60
2019-01-31T01:14:29.700Z,1.60
2019-01-31T01:17:27.886Z,1.60
2019-01-31T01:20:04.552Z,1.60
2019-01-31T01:23:01.730Z,1.60
2019-01-31T01:26:05.674Z,1.60
2019-01-31T01:29:06.981Z,1.50
2019-01-31T01:32:27.506Z,1.50
2019-01-31T01:35:35.259Z,1.50
2019-01-31T01:38:54.424Z,1.40
2019-01-31T01:42:13.880Z,1.40
2019-01-31T01:45:32.779Z,1.40
2019-01-31T01:48:13.000Z,1.40
2019-01-31T01:51:06.904Z,1.40
2019-01-31T01:54:03.277Z,1.40
2019-01-31T01:56:54.379Z,1.40
2019-01-31T01:59:47.967Z,1.40
2019-01-31T02:02:48.231Z,1.40
2019-01-31T02:05:50.966Z,1.40
2019-01-31T02:08:45.987Z,1.40
2019-01-31T02:11:37.698Z,1.30
2019-01-31T02:14:36.560Z,1.30
2019-01-31T02:17:20.593Z,1.40
2019-01-31T02:20:33.684Z,1.40
2019-01-31T02:23:45.174Z,1.30
2019-01-31T02:27:25.777Z,1.30
2019-01-31T02:30:22.241Z,1.30
2019-01-31T02:33:23.616Z,1.30
2019-01-31T02:36:06.863Z,1.20
2019-01-31T02:39:26.266Z,1.20
2019-01-31T02:42:35.777Z,1.20
2019-01-31T02:45:52.017Z,1.10
2019-01-31T02:48:47.166Z,1.00
2019-01-31T02:51:54.460Z,1.00
2019-01-31T02:54:40.306Z,0.90
2019-01-31T02:57:47.196Z,0.90
2019-01-31T03:00:42.652Z,0.80
2019-01-31T03:03:52.747Z,0.80
2019-01-31T03:06:55.769Z,0.80
2019-01-31T03:09:54.585Z,0.70
2019-01-31T03:12:37.113Z,0.70
2019-01-31T03:15:15.798Z,0.60
2019-01-31T03:18:20.250Z,0.60
2019-01-31T03:21:14.428Z,0.70
2019-01-31T03:24:10.761Z,0.60
2019-01-31T03:27:19.792Z,0.60
2019-01-31T03:30:25.075Z,0.60
2019-01-31T03:33:18.329Z,0.50
2019-01-31T03:36:13.331Z,0.50
2019-01-31T03:38:58.484Z,0.50
2019-01-31T03:41:54.956Z,0.50
2019-01-31T03:44:30.156Z,0.50
2019-01-31T03:47:10.938Z,0.40
2019-01-31T03:50:19.870Z,0.40
2019-01-31T03:53:41.661Z,0.40
2019-01-31T03:56:55.304Z,0.40
2019-01-31T03:59:34.692Z,0.40
2019-01-31T04:02:43.911Z,0.30
2019-01-31T04:05:49.902Z,0.30
2019-01-31T04:08:18.868Z,0.30
2019-01-31T04:10:47.736Z,0.30
2019-01-31T04:13:17.821Z,0.30
2019-01-31T04:15:46.711Z,0.30
2019-01-31T04:18:15.600Z,0.30
2019-01-31T04:20:44.503Z,0.20
2019-01-31T04:23:13.309Z,0.30
2019-01-31T04:25:42.092Z,0.20
2019-01-31T04:28:11.093Z,0.30
2019-01-31T04:30:40.185Z,0.20
2019-01-31T04:33:09.129Z,0.20
2019-01-31T04:35:37.944Z,0.20
2019-01-31T04:38:07.074Z,0.20
2019-01-31T04:40:35.912Z,0.10
2019-01-31T04:43:04.954Z,0.00
2019-01-31T04:45:33.758Z,0.00
2019-01-31T04:48:02.739Z,0.00
2019-01-31T04:50:31.788Z,0.00
2019-01-31T04:53:00.736Z,0.00
2019-01-31T04:55:29.561Z,-0.10
2019-01-31T04:57:58.443Z,0.00
2019-01-31T05:00:27.494Z,0.00
2019-01-31T05:02:56.635Z,0.00
2019-01-31T05:05:25.536Z,0.00
2019-01-31T05:07:54.352Z,0.00
2019-01-31T05:10:23.261Z,0.00
2019-01-31T05:12:52.074Z,0.00
2019-01-31T05:15:21.025Z,-0.10
2019-01-31T05:17:49.889Z,-0.10
2019-01-31T05:20:18.849Z,-0.10
2019-01-31T05:22:47.680Z,-0.10
2019-01-31T05:25:16.649Z,-0.10
2019-01-31T05:27:45.636Z,-0.10
2019-01-31T05:30:15.683Z,-0.10
2019-01-31T05:32:44.726Z,-0.10
2019-01-31T05:35:13.861Z,-0.20
2019-01-31T05:37:42.775Z,-0.20
2019-01-31T05:40:13.478Z,-0.10
2019-01-31T05:42:42.453Z,-0.20
2019-01-31T05:45:13.337Z,-0.20
2019-01-31T05:47:42.615Z,-0.30
2019-01-31T05:50:13.953Z,-0.30
2019-01-31T05:52:42.832Z,-0.30
2019-01-31T05:55:11.958Z,-0.30
2019-01-31T05:57:41.005Z,-0.30
2019-01-31T06:00:13.688Z,-0.30
2019-01-31T06:02:42.495Z,-0.30
2019-01-31T06:05:11.680Z,-0.30
2019-01-31T06:07:40.609Z,-0.40
2019-01-31T06:10:09.974Z,-0.40
2019-01-31T06:12:38.871Z,-0.40
2019-01-31T06:15:10.685Z,-0.40
2019-01-31T06:17:39.575Z,-0.40
2019-01-31T06:20:10.132Z,-0.40
2019-01-31T06:22:41.218Z,-0.40
2019-01-31T06:25:10.194Z,-0.40
2019-01-31T06:27:39.225Z,-0.50
2019-01-31T06:30:09.398Z,-0.40
2019-01-31T06:32:39.236Z,-0.50
2019-01-31T06:35:09.122Z,-0.40
2019-01-31T06:37:38.185Z,-0.50
2019-01-31T06:40:08.152Z,-0.50
2019-01-31T06:42:40.184Z,-0.50
2019-01-31T06:45:24.905Z,-0.50
2019-01-31T06:47:53.931Z,-0.50
2019-01-31T06:50:23.385Z,-0.50
2019-01-31T06:52:52.394Z,-0.50
2019-01-31T06:55:32.213Z,-0.50
2019-01-31T06:58:01.118Z,-0.50
2019-01-31T07:00:30.080Z,-0.50
2019-01-31T07:03:00.542Z,-0.50
2019-01-31T07:05:30.773Z,-0.50
2019-01-31T07:07:59.621Z,-0.40
2019-01-31T07:10:28.626Z,-0.50
2019-01-31T07:12:57.509Z,-0.40
2019-01-31T07:15:26.509Z,-0.40
2019-01-31T07:17:55.311Z,-0.40
2019-01-31T07:20:24.228Z,-0.30
2019-01-31T07:22:53.195Z,-0.30
2019-01-31T07:25:23.998Z,-0.30
2019-01-31T07:27:52.918Z,-0.30
2019-01-31T07:30:21.949Z,-0.30
2019-01-31T07:32:51.036Z,-0.30
2019-01-31T07:35:20.449Z,-0.30
2019-01-31T07:37:49.425Z,-0.20
2019-01-31T07:40:19.743Z,-0.30
2019-01-31T07:42:48.731Z,-0.30
2019-01-31T07:45:30.889Z,-0.20
2019-01-31T07:47:59.696Z,-0.20
2019-01-31T07:50:29.033Z,-0.20
2019-01-31T07:52:58.321Z,-0.20
2019-01-31T07:55:27.263Z,-0.20
2019-01-31T07:57:57.032Z,-0.10
2019-01-31T08:00:26.296Z,-0.10
2019-01-31T08:02:55.262Z,0.00
2019-01-31T08:05:24.154Z,-0.10
2019-01-31T08:07:54.059Z,0.00
2019-01-31T08:10:37.226Z,0.00
2019-01-31T08:13:06.187Z,0.00
2019-01-31T08:15:35.037Z,0.20
2019-01-31T08:18:04.082Z,0.10
2019-01-31T08:20:33.109Z,0.10
2019-01-31T08:23:01.960Z,0.10
2019-01-31T08:25:31.076Z,0.10
2019-01-31T08:28:00.135Z,0.10
2019-01-31T08:30:31.445Z,0.20
2019-01-31T08:33:00.530Z,0.20
2019-01-31T08:35:29.458Z,0.20
2019-01-31T08:37:58.507Z,0.10
2019-01-31T08:40:27.344Z,0.10
2019-01-31T08:42:56.445Z,0.10
2019-01-31T08:45:25.469Z,0.10
2019-01-31T08:47:54.509Z,0.20
2019-01-31T08:50:27.446Z,0.10
2019-01-31T08:52:55.514Z,0.00
2019-01-31T08:55:24.485Z,0.00
2019-01-31T08:57:53.490Z,0.00
2019-01-31T09:00:27.190Z,0.10
2019-01-31T09:02:56.171Z,0.00
2019-01-31T09:05:25.168Z,0.00
2019-01-31T09:07:54.180Z,0.00
2019-01-31T09:10:28.034Z,0.00
2019-01-31T09:12:57.513Z,0.00
2019-01-31T09:15:26.983Z,0.10
2019-01-31T09:17:55.957Z,0.10
2019-01-31T09:20:28.245Z,0.00
2019-01-31T09:23:08.537Z,-0.10
2019-01-31T09:26:20.027Z,0.00
2019-01-31T09:29:07.348Z,0.00
2019-01-31T09:32:06.729Z,-0.10
2019-01-31T09:34:52.601Z,-0.10
2019-01-31T09:37:45.963Z,-0.20
2019-01-31T09:40:31.587Z,-0.10
2019-01-31T09:43:34.873Z,0.00
2019-01-31T09:46:16.922Z,0.00
2019-01-31T09:49:14.004Z,0.00
2019-01-31T09:52:33.633Z,-0.10
2019-01-31T09:55:22.137Z,0.00
2019-01-31T09:58:33.156Z,-0.10
2019-01-31T10:01:24.928Z,-0.10
2019-01-31T10:04:22.840Z,-0.10
2019-01-31T10:07:17.720Z,0.00
2019-01-31T10:09:53.397Z,0.10
2019-01-31T10:12:45.564Z,0.10
2019-01-31T10:16:10.898Z,0.10
2019-01-31T10:19:23.256Z,0.20
2019-01-31T10:22:27.330Z,0.10
2019-01-31T10:25:35.810Z,0.20
2019-01-31T10:28:56.030Z,0.20
2019-01-31T10:31:50.885Z,0.20
2019-01-31T10:34:49.443Z,0.20
2019-01-31T10:37:59.815Z,0.30
2019-01-31T10:41:22.588Z,0.30
2019-01-31T10:44:41.677Z,0.30
2019-01-31T10:47:50.346Z,0.30
2019-01-31T10:51:02.720Z,0.20
2019-01-31T10:53:47.106Z,0.20
2019-01-31T10:56:56.588Z,0.30
2019-01-31T10:59:53.120Z,0.30
2019-01-31T11:02:44.437Z,0.30
2019-01-31T11:05:29.692Z,0.30
2019-01-31T11:08:08.244Z,0.30
2019-01-31T11:11:07.264Z,0.20
2019-01-31T11:14:01.005Z,0.20
2019-01-31T11:16:53.684Z,0.20
2019-01-31T11:19:46.385Z,0.30
2019-01-31T11:23:01.662Z,0.30
2019-01-31T11:25:52.776Z,0.30
2019-01-31T11:28:57.765Z,0.30
2019-01-31T11:31:55.729Z,0.40
2019-01-31T11:34:51.816Z,0.30
2019-01-31T11:38:10.867Z,0.30
2019-01-31T11:41:07.354Z,0.30
2019-01-31T11:43:53.749Z,0.20
2019-01-31T11:46:43.250Z,0.20
2019-01-31T11:49:44.209Z,0.20
2019-01-31T11:53:01.584Z,0.30
2019-01-31T11:55:49.165Z,0.40
2019-01-31T11:58:53.609Z,0.30
2019-01-31T12:01:22.639Z,0.30
2019-01-31T12:03:54.487Z,0.50
2019-01-31T12:06:23.417Z,0.50
2019-01-31T12:08:52.468Z,0.30
2019-01-31T12:11:21.659Z,0.20
2019-01-31T12:13:50.539Z,0.30
2019-01-31T12:16:19.633Z,0.30
2019-01-31T12:18:48.519Z,0.30
2019-01-31T12:21:17.436Z,0.30
2019-01-31T12:23:46.451Z,0.40
2019-01-31T12:26:15.344Z,0.30
2019-01-31T12:28:44.549Z,0.20
2019-01-31T12:31:13.399Z,0.30
2019-01-31T12:33:42.496Z,0.30
2019-01-31T12:36:11.310Z,0.20
2019-01-31T12:38:40.177Z,0.10
2019-01-31T12:41:09.139Z,0.20
2019-01-31T12:43:38.089Z,0.20
2019-01-31T12:46:07.464Z,0.20
2019-01-31T12:48:36.361Z,0.30
2019-01-31T12:51:05.353Z,0.20
2019-01-31T12:53:34.270Z,0.20
2019-01-31T12:56:03.159Z,0.30
2019-01-31T12:58:33.546Z,0.40
2019-01-31T13:01:03.840Z,0.40
2019-01-31T13:03:32.887Z,0.20
2019-01-31T13:06:01.681Z,0.10
2019-01-31T13:08:30.592Z,0.30
2019-01-31T13:10:59.412Z,0.20
2019-01-31T13:13:28.273Z,0.20
2019-01-31T13:15:57.602Z,0.30
2019-01-31T13:18:26.503Z,0.30
2019-01-31T13:20:55.364Z,0.40
2019-01-31T13:23:24.341Z,0.50
2019-01-31T13:25:53.324Z,0.40
2019-01-31T13:28:22.227Z,0.30
2019-01-31T13:30:51.046Z,0.30
2019-01-31T13:33:20.189Z,0.40
2019-01-31T13:35:49.146Z,0.40
2019-01-31T13:38:18.005Z,0.30
2019-01-31T13:40:49.628Z,0.20
2019-01-31T13:43:18.684Z,0.20
2019-01-31T13:45:47.555Z,0.20
2019-01-31T13:48:16.887Z,0.30
2019-01-31T13:50:45.757Z,0.30
2019-01-31T13:53:14.893Z,0.40
2019-01-31T13:55:43.853Z,0.40
2019-01-31T13:58:12.658Z,0.40
2019-01-31T14:00:41.612Z,0.40
2019-01-31T14:03:10.691Z,0.40
2019-01-31T14:05:39.882Z,0.20
2019-01-31T14:08:09.217Z,0.20
2019-01-31T14:10:38.328Z,0.10
2019-01-31T14:13:07.434Z,0.10
2019-01-31T14:15:36.761Z,0.10
2019-01-31T14:18:05.845Z,0.00
2019-01-31T14:20:35.121Z,0.20
2019-01-31T14:23:04.289Z,0.10
2019-01-31T14:25:33.208Z,0.10
2019-01-31T14:28:02.290Z,0.20
2019-01-31T14:30:36.232Z,0.20
2019-01-31T14:33:08.337Z,0.20
2019-01-31T14:35:37.339Z,0.30
2019-01-31T14:38:06.453Z,0.30
2019-01-31T14:40:35.408Z,0.30
2019-01-31T14:43:04.593Z,0.20
2019-01-31T14:45:33.529Z,0.20
2019-01-31T14:48:02.406Z,0.10
2019-01-31T14:50:32.688Z,0.00
2019-01-31T14:53:02.320Z,0.00
2019-01-31T14:55:31.413Z,0.10
2019-01-31T14:58:00.520Z,0.10
2019-01-31T15:00:30.928Z,0.10
2019-01-31T15:02:59.849Z,0.00
2019-01-31T15:05:29.407Z,0.20
2019-01-31T15:07:58.272Z,0.10
2019-01-31T15:10:28.063Z,0.00
2019-01-31T15:12:57.078Z,0.00
2019-01-31T15:15:26.185Z,0.00
2019-01-31T15:17:55.378Z,0.10
2019-01-31T15:20:37.658Z,0.10
2019-01-31T15:23:00.233Z,0.10
2019-01-31T15:25:29.116Z,0.10
2019-01-31T15:27:57.948Z,0.00
2019-01-31T15:30:29.522Z,0.00
2019-01-31T15:32:59.040Z,0.00
2019-01-31T15:35:27.980Z,-0.10
2019-01-31T15:37:56.917Z,0.00
2019-01-31T15:40:37.549Z,0.00
2019-01-31T15:43:06.814Z,0.10
2019-01-31T15:45:35.656Z,0.00
2019-01-31T15:48:05.612Z,0.00
2019-01-31T15:50:34.726Z,0.10
2019-01-31T15:53:03.870Z,0.10
2019-01-31T15:55:32.897Z,0.00
2019-01-31T15:58:01.777Z,0.00
2019-01-31T16:00:43.861Z,-0.10
2019-01-31T16:03:14.860Z,0.00
2019-01-31T16:05:44.186Z,0.00
2019-01-31T16:08:13.145Z,0.00
2019-01-31T16:10:42.270Z,0.00
2019-01-31T16:13:11.293Z,0.10
2019-01-31T16:15:40.491Z,0.10
2019-01-31T16:18:10.695Z,0.10
2019-01-31T16:20:39.948Z,0.00
2019-01-31T16:23:09.693Z,0.00
2019-01-31T16:25:38.630Z,0.00
2019-01-31T16:28:07.957Z,0.00
2019-01-31T16:30:37.137Z,0.00
2019-01-31T16:33:07.095Z,0.00
2019-01-31T16:35:37.632Z,-0.10
2019-01-31T16:38:07.116Z,-0.20
2019-01-31T16:40:36.119Z,-0.20
2019-01-31T16:43:05.719Z,-0.20
2019-01-31T16:45:34.613Z,-0.10
2019-01-31T16:48:03.760Z,-0.10
2019-01-31T16:50:35.140Z,-0.20
2019-01-31T16:53:04.582Z,-0.10
2019-01-31T16:55:33.718Z,-0.20
2019-01-31T16:58:02.720Z,-0.10
2019-01-31T17:00:32.193Z,-0.10
2019-01-31T17:03:01.181Z,-0.20
2019-01-31T17:05:31.880Z,-0.20
2019-01-31T17:08:01.028Z,-0.10
2019-01-31T17:10:30.638Z,-0.20
2019-01-31T17:12:59.770Z,-0.20
2019-01-31T17:15:29.292Z,-0.10
2019-01-31T17:17:58.188Z,-0.20
2019-01-31T17:20:30.476Z,-0.10
2019-01-31T17:22:59.461Z,-0.10
2019-01-31T17:25:28.496Z,-0.10
2019-01-31T17:27:57.384Z,0.00
2019-01-31T17:30:26.498Z,0.00
2019-01-31T17:32:55.693Z,0.00
2019-01-31T17:35:24.824Z,0.00
2019-01-31T17:37:53.963Z,0.00
2019-01-31T17:40:26.053Z,0.10
2019-01-31T17:42:55.180Z,0.10
2019-01-31T17:45:30.412Z,0.10
2019-01-31T17:47:55.079Z,0.10
2019-01-31T17:50:23.945Z,0.10
2019-01-31T17:52:52.777Z,0.20
2019-01-31T17:55:21.960Z,0.20
2019-01-31T17:57:50.926Z,0.20
2019-01-31T18:00:26.281Z,0.30
2019-01-31T18:02:55.153Z,0.20
2019-01-31T18:05:25.129Z,0.30
2019-01-31T18:07:54.014Z,0.30
2019-01-31T18:10:25.038Z,0.30
2019-01-31T18:12:53.762Z,0.40
2019-01-31T18:15:23.005Z,0.40
2019-01-31T18:17:52.209Z,0.40
2019-01-31T18:20:21.277Z,0.40
2019-01-31T18:22:52.360Z,0.50
2019-01-31T18:25:21.268Z,0.50
2019-01-31T18:27:53.127Z,0.50
2019-01-31T18:30:23.141Z,0.60
2019-01-31T18:32:52.344Z,0.60
2019-01-31T18:35:21.736Z,0.60
2019-01-31T18:37:51.759Z,0.70
2019-01-31T18:40:23.220Z,0.70
2019-01-31T18:42:52.282Z,0.70
2019-01-31T18:45:23.476Z,0.70
2019-01-31T18:47:53.013Z,0.80
2019-01-31T18:50:24.228Z,0.80
2019-01-31T18:52:53.317Z,0.80
2019-01-31T18:55:22.421Z,0.80
2019-01-31T18:57:51.508Z,0.80
2019-01-31T19:00:25.973Z,0.80
2019-01-31T19:02:55.432Z,0.80
2019-01-31T19:05:24.520Z,0.80
2019-01-31T19:07:54.237Z,0.80
2019-01-31T19:10:23.341Z,0.70
2019-01-31T19:12:52.531Z,0.70
2019-01-31T19:15:21.513Z,0.60
2019-01-31T19:17:50.334Z,0.60
2019-01-31T19:20:21.633Z,0.50
2019-01-31T19:22:51.081Z,0.50
2019-01-31T19:25:20.110Z,0.50
2019-01-31T19:28:31.792Z,0.50
2019-01-31T19:30:49.712Z,0.50
2019-01-31T19:33:18.641Z,0.40
2019-01-31T19:35:49.842Z,0.40
2019-01-31T19:38:18.451Z,0.40
2019-01-31T19:40:47.417Z,0.30
2019-01-31T19:43:16.297Z,0.30
2019-01-31T19:45:47.436Z,0.30
2019-01-31T19:48:16.416Z,0.20
2019-01-31T19:50:45.432Z,0.20
2019-01-31T19:53:14.498Z,0.10
2019-01-31T19:55:43.414Z,0.00
2019-01-31T19:58:12.390Z,0.00
2019-01-31T20:00:41.445Z,0.00
2019-01-31T20:03:11.241Z,-0.10
2019-01-31T20:05:40.247Z,-0.10
2019-01-31T20:08:11.046Z,-0.20
2019-01-31T20:10:40.063Z,-0.20
2019-01-31T20:13:09.078Z,-0.30
2019-01-31T20:15:38.037Z,-0.20
2019-01-31T20:18:07.169Z,-0.30
2019-01-31T20:20:36.102Z,-0.30
2019-01-31T20:23:06.161Z,-0.30
2019-01-31T20:25:35.169Z,-0.20
2019-01-31T20:28:04.313Z,-0.20
2019-01-31T20:30:33.684Z,-0.20
2019-01-31T20:33:02.965Z,-0.10
2019-01-31T20:35:32.121Z,-0.10
2019-01-31T20:38:01.526Z,0.10
2019-01-31T20:40:35.786Z,0.10
2019-01-31T20:43:06.248Z,0.20
2019-01-31T20:45:35.354Z,0.30
2019-01-31T20:48:04.710Z,0.30
2019-01-31T20:50:34.581Z,0.30
2019-01-31T20:53:03.837Z,0.30
2019-01-31T20:55:33.115Z,0.20
2019-01-31T20:58:02.268Z,0.30
2019-01-31T21:00:34.332Z,0.20
2019-01-31T21:03:06.574Z,0.20
2019-01-31T21:05:36.067Z,0.20
2019-01-31T21:08:05.851Z,0.30
2019-01-31T21:10:37.456Z,0.30
2019-01-31T21:13:07.357Z,0.40
2019-01-31T21:15:36.491Z,0.40
2019-01-31T21:18:06.481Z,0.50
2019-01-31T21:20:35.615Z,0.50
2019-01-31T21:23:05.408Z,0.50
2019-01-31T21:25:34.657Z,0.50
2019-01-31T21:28:06.193Z,0.50
2019-01-31T21:30:40.054Z,0.40
2019-01-31T21:33:09.026Z,0.50
2019-01-31T21:35:37.991Z,0.50
2019-01-31T21:38:07.040Z,0.40
2019-01-31T21:40:37.232Z,0.40
2019-01-31T21:43:06.695Z,0.40
2019-01-31T21:45:35.630Z,0.40
2019-01-31T21:48:05.605Z,0.40
2019-01-31T21:50:34.612Z,0.50
2019-01-31T21:53:03.503Z,0.50
2019-01-31T21:55:33.867Z,0.50
2019-01-31T21:58:02.704Z,0.50
2019-01-31T22:00:32.675Z,0.40
2019-01-31T22:03:01.692Z,0.40
2019-01-31T22:05:30.657Z,0.50
2019-01-31T22:07:59.697Z,0.40
2019-01-31T22:10:28.843Z,0.40
2019-01-31T22:12:58.097Z,0.40
2019-01-31T22:15:28.842Z,0.30
2019-01-31T22:18:00.191Z,0.30
2019-01-31T22:20:28.535Z,0.40
2019-01-31T22:22:57.515Z,0.40
2019-01-31T22:25:26.473Z,0.40
2019-01-31T22:27:55.582Z,0.40
2019-01-31T22:30:26.813Z,0.50
2019-01-31T22:32:55.701Z,0.40
2019-01-31T22:35:24.769Z,0.40
2019-01-31T22:37:54.220Z,0.50
2019-01-31T22:40:23.328Z,0.50
2019-01-31T22:42:52.336Z,0.50
2019-01-31T22:45:22.040Z,0.50
2019-01-31T22:47:51.291Z,0.50
2019-01-31T22:50:21.109Z,0.50
2019-01-31T22:52:50.135Z,0.50
2019-01-31T22:55:20.497Z,0.50
2019-01-31T22:57:49.404Z,0.50
2019-01-31T23:00:49.497Z,0.50
2019-01-31T23:03:18.485Z,0.50
2019-01-31T23:05:55.209Z,0.50
2019-01-31T23:08:24.307Z,0.50
2019-01-31T23:10:53.297Z,0.40
2019-01-31T23:13:22.345Z,0.40
2019-01-31T23:15:51.408Z,0.40
2019-01-31T23:18:20.316Z,0.40
2019-01-31T23:20:49.170Z,0.40
2019-01-31T23:23:18.125Z,0.40
2019-01-31T23:25:47.108Z,0.40
2019-01-31T23:28:15.982Z,0.30
2019-01-31T23:30:44.876Z,0.30
2019-01-31T23:33:14.268Z,0.30
2019-01-31T23:35:43.191Z,0.40
2019-01-31T23:38:12.039Z,0.40
2019-01-31T23:40:41.001Z,0.40
2019-01-31T23:43:09.865Z,0.40
2019-01-31T23:45:38.834Z,0.40
2019-01-31T23:48:08.020Z,0.40
2019-01-31T23:50:36.981Z,0.50
2019-01-31T23:53:06.194Z,0.50
2019-01-31T23:55:35.077Z,0.50
2019-01-31T23:58:04.030Z,0.60
